Terminal Aerodrome Forecast
Issued by NWS San Angelo, TX

Home | Current Version | Previous Version | Text Only | Print | Product List | Glossary On
Versions: 1 2 3 4 5 6 7 8 9 10 11 12 13
534
FTUS44 KSJT 280520
TAFABI
TAF
KABI 280520Z 2806/2906 19020G30KT P6SM FEW250
     FM281100 20012KT P6SM FEW250
     FM290400 15017G25KT P6SM SCT080 BKN250=

USA.gov is the U.S. government's official web portal to all federal, state and local government web resources and services.